West Point, CA (95255)

1:54 AM PDT on October 01, 2014 (GMT -0700)
Walton's Mountain Winery | Change Station
CLOSE
Current Station
Personal Weather Station
Location: West Point, CA
Elevation: 2800 ft
Nearby Weather Stations

Elev 2800 ft 38.40 °N, 120.52 °W | Updated 3 minutes ago

Clear
Clear
53.4 °F
Feels Like 53.4 °F
N
0.0
Wind Variable Wind from NNW
Gusts 0.0 mph

Today
High -- | Low -- °F
--% Chance of Precip.
Yesterday
High -- | Low -- °F
Precip. -- in
6:57 AM 6:44 PM
Waxing Crescent, 45% visible
Pressure 29.90 in
Visibility 10.0 miles
Clouds Scattered Clouds 4000 ft
Mostly Cloudy 4800 ft
Dew Point 42 °F
Humidity 64%
Rainfall 0.00 in
Snow Depth Not available.
UV 0 out of 12
Pollen 5.20 out of 12
Air Quality Not available.
Flu Activity Not available.
METAR KPVF 010835Z AUTO 07010KT 10SM SCT040 BKN048 17/04 A2990 RMK AO1

More Conditions Fewer Conditions

Pressure 29.90 in
Visibility 10.0 miles
Clouds Scattered Clouds 4000 ft
Mostly Cloudy 4800 ft
Dew Point 42 °F
Humidity 64%
Rainfall 0.00 in
Snow Depth Not available.
UV 0 out of 12
Pollen 5.20 out of 12
Air Quality Not available.
Flu Activity Not available.
METAR KPVF 010835Z AUTO 07010KT 10SM SCT040 BKN048 17/04 A2990 RMK AO1

More Conditions Fewer Conditions

10-Day Weather Forecast

Almanac

Astronomy

Oct. 01, 2014 Rise Set
Actual Time 6:57 AM PDT 6:44 PM PDT
Civil Twilight 6:31 AM PDT 7:11 PM PDT
Nautical Twilight 6:00 AM PDT 7:41 PM PDT
Astronomical Twilight 5:29 AM PDT 8:12 PM PDT
Moon 1:59 PM PDT No Moon Set
Length of Visible Light 12h 39m
Length of Day
11h 46m
Tomorrow will be 2m 28s shorter.
Waxing Crescent, 45% of the Moon is Illuminated
Today
Waxing Crescent
Oct 1
First Quarter
Oct 8
Full
Oct 15
Last Quarter
Oct 23
New

Today's Extremes

State Highs State Lows

Community

WunderPhotos

Upload Photos

1,757,902 photos uploaded!

Nearby

Air Quality

  Air Quality AQ Index Pollutant
Yesterday Good
OZONE
Wednesday Good
OZONE
Thursday Moderate
OZONE
Friday Moderate
OZONE
Saturday Moderate
OZONE
Sunday Moderate
OZONE

Snow Depth

Station Depth Elevation
Spratt Creek 1 in 6200 ft
Monitor Pass 0 in 8350 ft
Hagan's Meadow 0 in 8000 ft
CSS Lab 5 in 6900 ft
Ebbetts Pass 0 in 8700 ft

Earthquake Activity

City Distance Mag. Time & Date
East Foothills, California 94 miles 2.6 3:34 PM PDT
2014-09-30
South Dos Palos, California 123 miles 2.7 3:08 PM PDT
2014-09-30
South Dos Palos, California 123 miles 2.5 9:18 PM PDT
2014-09-29
American Canyon, California 98 miles 2.5 12:17 AM PDT
2014-09-29
Minimum magnitude displayed is 2.5.

Coastal Water Temperatures

Place Temperature
No Stations Reporting

Nearby Weather Stations